Time;durP1;ratioP1;P1;durP2;ratioP2;P2;SDS_P1;SDS_P2;PMS_P1;PMS_P2;Temp;Humidity;BMP_temperature;BMP_pressure;BME280_temperature;BME280_humidity;BME280_pressure;Samples;Min_cycle;Max_cycle;Signal;HPM_P1;HPM_P2
2022/03/13 00:01:11;;;;;;;;;8.25;8.25;;;;;11.27;64.80;100616.78;5054661;28;45152;-73
2022/03/13 00:03:38;;;;;;;;;17.25;15.25;;;;;11.14;65.33;100582.63;5069648;28;45225;-74
2022/03/13 00:06:03;;;;;;;;;16.00;14.25;;;;;10.76;64.85;100514.09;5059414;28;46137;-73
2022/03/13 00:08:32;;;;;;;;;14.75;10.25;;;;;11.39;64.39;100626.81;5057379;28;45304;-73
2022/03/13 00:10:59;;;;;;;;;15.75;13.00;;;;;11.43;64.27;100624.25;5062168;28;45010;-72
2022/03/13 00:13:30;;;;;;;;;18.75;18.75;;;;;11.05;63.91;100548.53;5058595;28;45247;-74
2022/03/13 00:15:58;;;;;;;;;15.50;14.00;;;;;11.49;63.97;100617.22;5053132;28;45526;-74
2022/03/13 00:18:23;;;;;;;;;15.00;14.00;;;;;11.02;63.30;100540.44;5049947;28;45218;-74
2022/03/13 00:20:49;;;;;;;;;30.75;24.25;;;;;11.22;63.71;100570.31;5064127;28;45116;-71
2022/03/13 00:23:15;;;;;;;;;26.75;24.00;;;;;11.43;64.05;100616.22;5051965;28;45148;-73
2022/03/13 00:25:41;;;;;;;;;19.75;15.50;;;;;11.17;62.80;100564.84;5064597;28;45467;-73
2022/03/13 00:28:07;;;;;;;;;28.25;23.00;;;;;11.40;62.40;100596.50;5048776;28;45284;-72
2022/03/13 00:30:33;;;;;;;;;19.25;16.00;;;;;11.51;62.75;100624.38;5056361;28;45199;-73
2022/03/13 00:33:00;;;;;;;;;13.25;13.25;;;;;11.02;62.69;100528.00;5066416;28;45119;-73
2022/03/13 00:35:26;;;;;;;;;7.75;7.75;;;;;11.23;62.46;100570.31;5056040;28;45179;-73
2022/03/13 00:37:55;;;;;;;;;14.25;11.25;;;;;11.32;62.38;100574.97;5050757;28;45539;-73
2022/03/13 00:40:21;;;;;;;;;10.75;7.00;;;;;11.46;62.33;100599.31;5067013;28;45305;-72
2022/03/13 00:42:46;;;;;;;;;6.00;6.00;;;;;11.48;61.97;100589.53;5063243;28;45087;-73
2022/03/13 00:45:13;;;;;;;;;9.00;8.00;;;;;11.38;61.16;100568.84;5066733;28;45513;-73
2022/03/13 00:47:38;;;;;;;;;10.00;8.25;;;;;11.60;61.93;100615.66;5059068;28;44979;-73
2022/03/13 00:50:04;;;;;;;;;8.50;8.25;;;;;11.56;62.20;100612.00;5062854;28;45134;-72
2022/03/13 00:52:29;;;;;;;;;14.50;14.50;;;;;11.61;62.15;100602.31;5064549;28;45226;-72
2022/03/13 00:54:55;;;;;;;;;20.00;16.75;;;;;11.61;62.08;100610.34;5063059;28;45536;-74
2022/03/13 00:57:20;;;;;;;;;12.50;7.50;;;;;11.55;61.76;100574.50;5057948;28;45008;-73
2022/03/13 00:59:46;;;;;;;;;8.75;6.00;;;;;11.72;61.06;100602.50;5066328;28;45027;-73
2022/03/13 01:02:13;;;;;;;;;27.75;24.75;;;;;11.42;61.03;100552.88;5053497;28;45994;-73
2022/03/13 01:04:39;;;;;;;;;11.00;9.00;;;;;11.73;61.10;100598.03;5064027;28;46174;-73
2022/03/13 01:07:04;;;;;;;;;6.00;5.25;;;;;11.72;60.70;100606.97;5057284;28;45134;-72
2022/03/13 01:09:29;;;;;;;;;6.25;5.00;;;;;11.56;59.98;100566.50;5058731;28;45158;-73
2022/03/13 01:11:55;;;;;;;;;8.25;6.25;;;;;11.21;60.32;100507.88;5052679;28;45220;-74
2022/03/13 01:14:22;;;;;;;;;5.00;5.00;;;;;11.81;59.87;100596.41;5063387;28;46253;-73
2022/03/13 01:16:47;;;;;;;;;6.75;6.75;;;;;11.60;60.60;100551.44;5065362;28;45107;-72
2022/03/13 01:19:12;;;;;;;;;7.50;7.00;;;;;11.87;60.10;100590.28;5057662;28;46294;-73
2022/03/13 01:21:41;;;;;;;;;8.00;5.00;;;;;11.72;59.45;100545.41;5054162;28;45733;-75
2022/03/13 01:24:15;;;;;;;;;3.75;3.75;;;;;11.89;60.28;100584.06;5069518;28;45005;-73
2022/03/13 01:26:42;;;;;;;;;7.00;6.00;;;;;11.71;59.29;100562.34;5065720;28;45180;-73
2022/03/13 01:29:12;;;;;;;;;6.50;5.25;;;;;11.91;59.69;100585.06;5051557;28;45091;-74
2022/03/13 01:31:46;;;;;;;;;7.00;7.00;;;;;11.68;59.43;100546.22;5060865;28;45398;-74
2022/03/13 01:34:25;;;;;;;;;7.00;7.00;;;;;11.74;58.94;100563.28;5065168;28;45834;-74
2022/03/13 01:36:50;;;;;;;;;7.50;6.50;;;;;11.78;59.87;100569.63;5068129;28;45059;-73
2022/03/13 01:39:15;;;;;;;;;5.00;5.00;;;;;11.74;58.50;100567.75;5072759;28;45204;-71
2022/03/13 01:41:41;;;;;;;;;5.50;5.50;;;;;11.72;59.40;100567.72;5063896;28;45080;-74
2022/03/13 01:44:06;;;;;;;;;7.25;4.75;;;;;11.31;59.22;100489.34;5061174;28;53272;-74
2022/03/13 01:46:32;;;;;;;;;10.25;6.25;;;;;11.58;58.92;100524.66;5066308;28;45479;-74
2022/03/13 01:49:02;;;;;;;;;6.75;6.25;;;;;11.77;59.55;100549.06;5053381;28;45312;-72
2022/03/13 01:51:28;;;;;;;;;7.00;4.25;;;;;11.61;58.50;100508.66;5055379;28;45099;-72
2022/03/13 01:54:01;;;;;;;;;11.25;7.75;;;;;11.70;59.04;100526.66;5073101;28;45205;-74
2022/03/13 01:56:29;;;;;;;;;8.25;6.50;;;;;11.84;58.81;100547.41;5060747;28;45070;-72
2022/03/13 01:58:55;;;;;;;;;4.25;4.25;;;;;11.46;58.89;100472.69;5067798;28;45506;-74
2022/03/13 02:01:23;;;;;;;;;6.75;5.00;;;;;11.85;58.84;100552.78;5076490;27;45210;-74
2022/03/13 02:03:50;;;;;;;;;5.75;5.75;;;;;11.82;59.27;100542.03;5055605;28;46612;-73
2022/03/13 02:06:16;;;;;;;;;5.00;5.00;;;;;11.73;59.12;100523.09;5064747;28;45049;-74
2022/03/13 02:08:44;;;;;;;;;8.00;6.75;;;;;11.87;58.72;100544.78;5070716;28;44985;-73
2022/03/13 02:11:14;;;;;;;;;6.00;5.25;;;;;11.72;58.62;100524.00;5069011;28;45321;-74
2022/03/13 02:13:39;;;;;;;;;5.25;5.00;;;;;11.80;58.44;100536.63;5065292;28;45373;-73
2022/03/13 02:16:05;;;;;;;;;5.00;4.25;;;;;11.37;58.73;100450.25;5069807;28;45125;-74
2022/03/13 02:18:30;;;;;;;;;5.25;4.00;;;;;11.39;58.12;100467.22;5069308;28;45016;-74
2022/03/13 02:20:56;;;;;;;;;5.50;3.75;;;;;11.77;59.20;100531.22;5063041;28;45167;-73
2022/03/13 02:23:24;;;;;;;;;5.75;4.00;;;;;11.65;58.52;100506.00;5066498;28;45651;-71
2022/03/13 02:25:53;;;;;;;;;8.50;5.25;;;;;11.57;58.90;100509.47;5053858;28;45048;-72
2022/03/13 02:28:23;;;;;;;;;8.25;7.50;;;;;11.63;59.11;100516.69;5053024;28;45126;-73
2022/03/13 02:30:58;;;;;;;;;10.50;8.50;;;;;11.34;59.52;100466.22;5054488;28;45227;-74
2022/03/13 02:33:23;;;;;;;;;7.00;7.00;;;;;11.14;59.31;100438.22;5066143;28;45264;-73
2022/03/13 02:35:58;;;;;;;;;7.25;7.25;;;;;11.15;60.13;100438.25;5062484;28;45226;-73
2022/03/13 02:38:27;;;;;;;;;7.25;6.00;;;;;11.53;59.47;100501.34;5087053;28;45111;-72
2022/03/13 02:40:53;;;;;;;;;6.00;6.00;;;;;11.44;59.74;100494.06;5058025;28;45234;-73
2022/03/13 02:43:19;;;;;;;;;7.25;5.50;;;;;11.32;59.93;100464.38;5063006;28;45538;-74
2022/03/13 02:45:44;;;;;;;;;15.00;7.50;;;;;11.48;59.76;100495.00;5057419;28;45348;-71
2022/03/13 02:48:11;;;;;;;;;6.00;4.50;;;;;11.45;59.54;100490.53;5060068;28;44915;-73
2022/03/13 02:50:38;;;;;;;;;8.25;7.75;;;;;11.42;59.68;100495.81;5061556;28;45106;-71
2022/03/13 02:53:05;;;;;;;;;5.00;5.00;;;;;10.99;59.72;100430.81;5060309;28;45778;-73
2022/03/13 02:55:31;;;;;;;;;8.75;7.25;;;;;11.07;59.38;100448.81;5071534;28;45139;-74
2022/03/13 02:57:57;;;;;;;;;9.00;7.75;;;;;11.29;60.18;100489.31;5065244;28;45569;-73
2022/03/13 03:00:41;;;;;;;;;8.50;7.00;;;;;11.22;59.94;100487.41;5066916;28;45275;-74
2022/03/13 03:03:07;;;;;;;;;5.75;5.75;;;;;11.20;59.51;100500.75;5065794;28;45779;-74
2022/03/13 03:05:32;;;;;;;;;7.25;7.25;;;;;11.16;60.39;100485.50;5054020;28;45136;-73
2022/03/13 03:07:57;;;;;;;;;7.75;7.25;;;;;11.01;60.07;100470.06;5053779;28;45163;-74
2022/03/13 03:10:23;;;;;;;;;8.25;7.50;;;;;11.07;60.11;100475.53;5054705;28;45253;-72
2022/03/13 03:12:48;;;;;;;;;15.00;10.75;;;;;11.09;60.03;100483.59;5066054;28;45084;-74
2022/03/13 03:15:18;;;;;;;;;8.00;7.25;;;;;11.06;59.65;100471.03;5072505;28;44957;-72
2022/03/13 03:17:43;;;;;;;;;9.50;9.00;;;;;11.01;59.74;100462.03;5060614;28;45072;-74
2022/03/13 03:20:10;;;;;;;;;6.75;6.75;;;;;11.12;59.66;100480.97;5062135;28;45120;-73
2022/03/13 03:22:36;;;;;;;;;7.00;6.50;;;;;11.00;60.60;100453.97;5064005;28;45993;-74
2022/03/13 03:25:01;;;;;;;;;11.75;8.75;;;;;11.11;59.98;100483.63;5071943;28;45130;-73
2022/03/13 03:27:30;;;;;;;;;9.25;8.25;;;;;10.86;59.45;100440.34;5060851;28;45116;-74
2022/03/13 03:29:59;;;;;;;;;10.00;8.25;;;;;10.99;59.53;100460.22;5053800;28;44989;-72
2022/03/13 03:32:24;;;;;;;;;10.00;8.00;;;;;10.86;59.93;100448.38;5052225;28;45526;-74
2022/03/13 03:34:50;;;;;;;;;11.00;9.00;;;;;10.85;59.83;100455.47;5057023;28;45390;-72
2022/03/13 03:37:16;;;;;;;;;10.25;9.00;;;;;10.72;60.46;100426.69;5051204;28;45243;-75
2022/03/13 03:39:41;;;;;;;;;6.75;6.75;;;;;11.08;59.68;100473.75;5071179;28;45183;-74
2022/03/13 03:42:07;;;;;;;;;8.00;5.25;;;;;10.84;60.03;100434.09;5055674;28;45931;-74
2022/03/13 03:44:32;;;;;;;;;8.50;8.50;;;;;11.08;60.01;100468.41;5055189;28;45247;-75
2022/03/13 03:46:59;;;;;;;;;7.00;7.00;;;;;10.99;59.37;100465.56;5062963;28;45259;-72
2022/03/13 03:49:25;;;;;;;;;7.00;7.00;;;;;11.07;59.82;100466.63;5068440;27;45281;-71
2022/03/13 03:51:50;;;;;;;;;7.50;6.50;;;;;10.85;59.67;100433.19;5056337;28;45991;-75
2022/03/13 03:54:16;;;;;;;;;7.75;7.75;;;;;10.79;59.07;100450.03;5051827;28;45196;-73
2022/03/13 03:56:42;;;;;;;;;7.50;7.00;;;;;10.91;59.40;100477.88;5055483;28;45330;-73
2022/03/13 03:59:07;;;;;;;;;12.75;11.00;;;;;10.60;60.07;100421.13;5053747;28;45024;-72
2022/03/13 04:01:43;;;;;;;;;14.25;10.75;;;;;10.60;59.68;100422.00;5061408;28;47005;-74
2022/03/13 04:04:09;;;;;;;;;9.50;7.00;;;;;10.80;59.67;100462.50;5066727;28;44920;-74
2022/03/13 04:06:38;;;;;;;;;8.50;7.25;;;;;10.84;59.59;100464.38;5066424;28;45899;-74
2022/03/13 04:09:07;;;;;;;;;13.75;9.50;;;;;10.70;59.33;100444.47;5056028;28;45483;-75
2022/03/13 04:11:34;;;;;;;;;12.00;8.75;;;;;10.74;59.23;100453.44;5057091;28;46075;-72
2022/03/13 04:13:59;;;;;;;;;10.00;9.00;;;;;10.65;60.04;100452.38;5061978;28;45030;-73
2022/03/13 04:16:25;;;;;;;;;11.75;9.50;;;;;10.75;59.36;100472.19;5059197;28;45063;-73
2022/03/13 04:18:50;;;;;;;;;11.00;11.00;;;;;10.60;59.94;100439.81;5061824;28;45354;-74
2022/03/13 04:21:16;;;;;;;;;9.00;8.00;;;;;10.42;59.69;100400.25;5053373;28;45572;-73
2022/03/13 04:23:41;;;;;;;;;9.00;6.00;;;;;10.82;59.14;100481.22;5070104;28;45464;-72
2022/03/13 04:26:07;;;;;;;;;11.75;8.00;;;;;10.75;59.30;100479.31;5067971;28;45178;-74
2022/03/13 04:28:33;;;;;;;;;12.75;8.50;;;;;10.60;58.68;100446.06;5053060;28;45313;-73
2022/03/13 04:31:00;;;;;;;;;8.00;6.00;;;;;10.62;59.85;100446.09;5058615;28;45282;-74
2022/03/13 04:33:29;;;;;;;;;7.00;6.25;;;;;10.84;58.92;100476.84;5059186;28;45254;-74
2022/03/13 04:35:58;;;;;;;;;7.50;7.50;;;;;10.87;58.84;100496.50;5043114;28;45896;-72
2022/03/13 04:38:24;;;;;;;;;5.75;5.75;;;;;10.86;58.47;100489.34;5056398;28;46643;-73
2022/03/13 04:40:51;;;;;;;;;6.50;6.50;;;;;10.72;58.50;100453.41;5068720;28;45234;-73
2022/03/13 04:43:17;;;;;;;;;8.50;8.50;;;;;10.73;58.15;100451.66;5050826;28;45131;-74
2022/03/13 04:45:42;;;;;;;;;7.25;7.00;;;;;10.45;58.34;100416.34;5064170;28;45461;-73
2022/03/13 04:48:08;;;;;;;;;11.00;7.00;;;;;10.85;58.09;100466.16;5058908;28;45003;-71
2022/03/13 04:50:34;;;;;;;;;8.50;7.00;;;;;10.88;58.23;100468.91;5054796;28;45610;-75
2022/03/13 04:52:59;;;;;;;;;5.50;5.50;;;;;11.02;57.51;100481.63;5052292;28;45131;-73
2022/03/13 04:55:25;;;;;;;;;6.00;4.50;;;;;11.01;58.08;100475.41;5051950;28;45106;-74
2022/03/13 04:57:50;;;;;;;;;5.50;4.50;;;;;10.97;57.45;100457.50;5065601;28;45375;-74
2022/03/13 05:00:17;;;;;;;;;6.25;6.25;;;;;10.94;57.55;100445.84;5054927;28;45839;-74
2022/03/13 05:02:43;;;;;;;;;8.25;5.50;;;;;10.79;57.10;100423.31;5064001;28;45412;-73
2022/03/13 05:05:08;;;;;;;;;7.25;5.75;;;;;10.92;56.76;100442.25;5052814;28;45399;-75
2022/03/13 05:07:38;;;;;;;;;7.75;4.75;;;;;11.02;56.72;100465.59;5056786;28;45241;-74
2022/03/13 05:10:05;;;;;;;;;4.75;4.75;;;;;11.13;56.75;100465.81;5069263;28;45196;-74
2022/03/13 05:12:30;;;;;;;;;5.25;5.25;;;;;10.97;56.63;100443.22;5066585;28;45237;-74
2022/03/13 05:14:56;;;;;;;;;4.75;4.75;;;;;10.63;56.25;100370.44;5051968;28;45512;-70
2022/03/13 05:17:21;;;;;;;;;4.50;4.50;;;;;10.95;56.07;100420.91;5058769;28;45157;-75
2022/03/13 05:19:47;;;;;;;;;4.00;4.00;;;;;11.09;56.13;100445.22;5057902;28;45404;-74
2022/03/13 05:22:12;;;;;;;;;4.00;4.00;;;;;11.06;56.50;100446.97;5061071;28;45382;-73
2022/03/13 05:24:37;;;;;;;;;5.00;3.50;;;;;11.02;56.16;100436.19;5063079;28;45430;-73
2022/03/13 05:27:03;;;;;;;;;3.00;1.25;;;;;11.17;55.59;100459.66;5063227;28;45149;-73
2022/03/13 05:29:28;;;;;;;;;6.25;3.75;;;;;11.10;55.65;100463.09;5055629;28;46332;-72
2022/03/13 05:31:54;;;;;;;;;4.00;4.00;;;;;11.06;55.86;100457.69;5065893;28;44921;-74
2022/03/13 05:34:19;;;;;;;;;6.25;4.75;;;;;10.91;56.13;100443.13;5069049;28;45059;-73
2022/03/13 05:36:46;;;;;;;;;4.00;4.00;;;;;11.12;55.63;100480.06;5068371;28;45042;-72
2022/03/13 05:39:11;;;;;;;;;4.75;3.25;;;;;10.74;55.93;100430.31;5052522;28;46272;-74
2022/03/13 05:41:39;;;;;;;;;5.00;4.50;;;;;11.05;56.23;100471.00;5068685;28;45336;-75
2022/03/13 05:44:07;;;;;;;;;3.50;3.00;;;;;11.13;55.87;100476.53;5059461;28;45154;-75
2022/03/13 05:46:34;;;;;;;;;5.25;3.75;;;;;11.13;56.24;100474.75;5058978;28;45486;-75
2022/03/13 05:48:59;;;;;;;;;5.00;5.00;;;;;11.07;55.81;100455.94;5065857;28;46789;-73
2022/03/13 05:51:25;;;;;;;;;3.00;3.00;;;;;11.02;55.78;100455.84;5054973;28;47554;-74
2022/03/13 05:53:51;;;;;;;;;5.50;4.00;;;;;10.95;55.83;100440.53;5062429;28;45012;-74
2022/03/13 05:56:16;;;;;;;;;7.00;4.75;;;;;10.97;55.70;100440.56;5068284;28;45323;-74
2022/03/13 05:58:41;;;;;;;;;4.75;4.75;;;;;10.78;55.83;100421.47;5052382;28;44998;-73
2022/03/13 06:01:08;;;;;;;;;2.50;2.50;;;;;10.81;55.64;100434.03;5053464;28;45190;-75
2022/03/13 06:03:34;;;;;;;;;4.00;4.00;;;;;10.75;56.36;100431.22;5059000;28;45019;-75
2022/03/13 06:06:03;;;;;;;;;5.00;5.00;;;;;11.05;55.76;100487.06;5058451;28;45119;-72
2022/03/13 06:08:29;;;;;;;;;4.50;3.50;;;;;11.06;55.33;100487.09;5066311;28;45667;-72
2022/03/13 06:10:55;;;;;;;;;7.25;6.00;;;;;11.04;55.84;100483.50;5061692;28;45066;-75
2022/03/13 06:13:23;;;;;;;;;5.75;4.00;;;;;10.84;55.57;100450.13;5056708;28;45046;-73
2022/03/13 06:15:49;;;;;;;;;3.50;3.00;;;;;10.82;56.36;100449.16;5067760;28;45231;-75
2022/03/13 06:18:14;;;;;;;;;3.50;3.25;;;;;10.99;55.31;100479.81;5072576;28;46487;-74
2022/03/13 06:20:40;;;;;;;;;3.00;3.00;;;;;10.96;56.01;100494.91;5071201;28;45289;-73
2022/03/13 06:23:05;;;;;;;;;4.50;3.00;;;;;10.66;55.56;100443.50;5058002;28;45846;-73
2022/03/13 06:25:31;;;;;;;;;3.75;3.75;;;;;10.96;55.94;100495.78;5053368;28;45025;-72
2022/03/13 06:27:56;;;;;;;;;5.50;3.25;;;;;10.81;55.67;100492.81;5068865;28;45714;-76
2022/03/13 06:30:22;;;;;;;;;3.50;3.00;;;;;10.91;55.99;100508.16;5068436;28;44978;-76
2022/03/13 06:32:52;;;;;;;;;4.75;4.75;;;;;10.94;56.07;100502.88;5060474;28;45156;-72
2022/03/13 06:35:20;;;;;;;;;4.50;3.50;;;;;10.62;55.81;100460.34;5058243;28;45007;-74
2022/03/13 06:37:46;;;;;;;;;3.75;3.00;;;;;10.76;55.98;100484.69;5062823;28;45933;-73
2022/03/13 06:40:13;;;;;;;;;5.50;4.00;;;;;10.80;56.52;100483.88;5068558;28;45256;-73
2022/03/13 06:42:39;;;;;;;;;2.25;2.25;;;;;10.91;55.78;100489.47;5065950;28;45471;-73
2022/03/13 06:45:06;;;;;;;;;1.50;1.00;;;;;11.00;55.43;100492.31;5066113;28;45128;-75
2022/03/13 06:47:31;;;;;;;;;4.00;4.00;;;;;11.05;55.34;100511.13;5054941;28;46851;-73
2022/03/13 06:49:57;;;;;;;;;3.75;3.75;;;;;10.97;55.11;100496.69;5064910;28;45108;-73
2022/03/13 06:52:22;;;;;;;;;4.50;4.50;;;;;10.83;55.08;100467.91;5053414;28;45384;-72
2022/03/13 06:54:48;;;;;;;;;4.50;3.25;;;;;10.84;55.38;100488.44;5061212;28;45202;-74
2022/03/13 06:57:17;;;;;;;;;6.00;3.00;;;;;10.92;55.47;100509.06;5060617;28;45209;-73
2022/03/13 06:59:44;;;;;;;;;4.75;3.75;;;;;10.89;55.93;100507.25;5064726;28;45031;-73
2022/03/13 07:02:11;;;;;;;;;7.00;5.25;;;;;10.81;55.06;100493.72;5066673;28;45465;-74
2022/03/13 07:04:37;;;;;;;;;6.00;5.25;;;;;10.92;55.04;100517.06;5068856;28;45470;-72
2022/03/13 07:07:02;;;;;;;;;6.25;5.50;;;;;10.65;55.52;100457.72;5057580;28;47110;-73
2022/03/13 07:09:28;;;;;;;;;6.50;5.50;;;;;10.72;55.95;100461.44;5060050;28;45146;-71
2022/03/13 07:11:53;;;;;;;;;8.25;4.00;;;;;11.00;54.64;100499.44;5066479;28;45076;-72
2022/03/13 07:14:21;;;;;;;;;4.50;3.50;;;;;10.98;54.89;100499.41;5066645;28;45212;-73
2022/03/13 07:16:47;;;;;;;;;4.00;4.00;;;;;11.19;55.10;100501.59;5062547;28;45632;-74
2022/03/13 07:19:12;;;;;;;;;4.00;4.00;;;;;11.07;54.65;100472.84;5065865;28;45133;-73
2022/03/13 07:21:38;;;;;;;;;3.25;3.25;;;;;11.14;54.17;100481.91;5065350;28;45161;-72
2022/03/13 07:24:04;;;;;;;;;3.00;3.00;;;;;11.34;54.05;100502.78;5060014;28;45151;-73
2022/03/13 07:26:30;;;;;;;;;2.50;2.00;;;;;11.36;53.84;100501.03;5066117;28;46306;-73
2022/03/13 07:28:55;;;;;;;;;4.00;4.00;;;;;11.17;54.16;100463.25;5057084;28;45412;-73
2022/03/13 07:31:20;;;;;;;;;4.50;4.25;;;;;11.40;53.46;100493.09;5052951;28;45346;-72
2022/03/13 07:33:46;;;;;;;;;3.00;3.00;;;;;11.36;53.25;100499.25;5050727;28;45150;-74
2022/03/13 07:36:11;;;;;;;;;3.00;3.00;;;;;11.40;53.63;100505.56;5062389;28;45151;-72
2022/03/13 07:38:37;;;;;;;;;3.50;3.00;;;;;11.48;53.01;100503.03;5062933;28;45544;-73
2022/03/13 07:41:03;;;;;;;;;3.00;3.00;;;;;11.44;53.49;100492.28;5062153;28;45298;-74
2022/03/13 07:43:29;;;;;;;;;4.75;4.00;;;;;11.41;53.58;100478.84;5059571;28;45351;-74
2022/03/13 07:45:54;;;;;;;;;3.50;3.00;;;;;11.12;53.06;100432.84;5065891;28;45400;-73
2022/03/13 07:48:19;;;;;;;;;4.50;4.50;;;;;11.37;52.78;100471.66;5065218;28;46591;-73
2022/03/13 07:50:45;;;;;;;;;4.00;4.00;;;;;11.48;52.38;100500.34;5058136;28;45024;-73
2022/03/13 07:53:10;;;;;;;;;1.25;1.25;;;;;10.66;52.54;100365.16;5057408;28;44973;-71
2022/03/13 07:55:36;;;;;;;;;4.50;3.25;;;;;10.84;52.19;100386.00;5053183;28;45081;-73
2022/03/13 07:58:01;;;;;;;;;2.25;2.00;;;;;11.49;51.89;100504.84;5053876;28;45059;-74
2022/03/13 08:00:27;;;;;;;;;4.50;4.50;;;;;11.23;51.80;100462.44;5057258;28;45221;-74
2022/03/13 08:02:54;;;;;;;;;3.00;3.00;;;;;11.37;52.16;100501.06;5060555;28;45269;-75
2022/03/13 08:05:23;;;;;;;;;3.00;3.00;;;;;11.45;52.36;100517.28;5050224;28;45234;-73
2022/03/13 08:07:49;;;;;;;;;6.00;3.00;;;;;11.31;51.98;100481.31;5053858;28;44977;-73
2022/03/13 08:10:23;;;;;;;;;7.00;7.00;;;;;11.57;52.21;100506.78;5053384;28;45004;-70
2022/03/13 08:12:49;;;;;;;;;2.75;2.75;;;;;11.55;51.89;100505.88;5056485;28;45414;-71
2022/03/13 08:15:14;;;;;;;;;4.25;4.25;;;;;11.10;51.81;100418.53;5057099;28;45706;-70
2022/03/13 08:17:40;;;;;;;;;2.00;2.00;;;;;11.61;51.59;100502.38;5073683;28;45228;-70
2022/03/13 08:20:06;;;;;;;;;3.00;3.00;;;;;11.53;51.41;100488.88;5060422;28;45164;-71
2022/03/13 08:22:32;;;;;;;;;2.50;2.50;;;;;11.49;51.56;100489.69;5059765;28;45157;-72
2022/03/13 08:24:57;;;;;;;;;4.00;4.00;;;;;11.35;50.61;100461.78;5070247;28;45354;-72
2022/03/13 08:27:23;;;;;;;;;5.00;5.00;;;;;10.79;51.55;100345.81;5062858;27;45816;-72
2022/03/13 08:29:50;;;;;;;;;3.50;3.50;;;;;10.35;50.92;100251.47;5063683;28;45633;-71
2022/03/13 08:32:18;;;;;;;;;3.00;2.00;;;;;11.49;50.67;100464.72;5062151;28;46137;-72
2022/03/13 08:34:45;;;;;;;;;3.00;2.50;;;;;10.85;49.96;100339.66;5054281;28;45469;-72
2022/03/13 08:37:12;;;;;;;;;3.50;3.00;;;;;12.01;50.32;100481.72;5065430;28;45370;-71
2022/03/13 08:39:38;;;;;;;;;3.00;3.00;;;;;11.98;50.65;100461.13;5060266;28;45211;-71
2022/03/13 08:42:05;;;;;;;;;3.00;3.00;;;;;11.94;49.29;100463.72;5069768;28;45121;-73
2022/03/13 08:44:30;;;;;;;;;2.00;2.00;;;;;11.89;50.56;100449.34;5062281;28;45261;-71
2022/03/13 08:46:56;;;;;;;;;5.00;3.00;;;;;11.64;49.80;100405.22;5066429;28;45270;-72
2022/03/13 08:49:21;;;;;;;;;3.25;3.25;;;;;11.89;50.29;100450.22;5053132;28;45698;-73
2022/03/13 08:51:47;;;;;;;;;3.25;3.25;;;;;10.70;49.18;100217.38;5066784;28;45157;-73
2022/03/13 08:54:16;;;;;;;;;2.25;2.25;;;;;12.25;49.40;100465.09;5066432;28;45351;-73
2022/03/13 08:56:42;;;;;;;;;2.00;2.00;;;;;11.12;48.93;100280.47;5064996;28;45274;-71
2022/03/13 08:59:07;;;;;;;;;1.50;1.50;;;;;11.38;48.66;100325.44;5065839;28;45179;-72
2022/03/13 09:01:33;;;;;;;;;2.00;1.00;;;;;12.38;49.12;100449.22;5069322;28;45179;-74
2022/03/13 09:03:58;;;;;;;;;4.75;3.25;;;;;11.98;48.86;100355.81;5063924;28;45217;-74
2022/03/13 09:06:23;;;;;;;;;2.00;2.00;;;;;12.49;48.89;100420.81;5063636;28;46316;-72
2022/03/13 09:08:49;;;;;;;;;3.50;2.75;;;;;12.72;47.39;100451.47;5064571;28;45207;-73
2022/03/13 09:11:14;;;;;;;;;2.75;2.00;;;;;12.37;47.53;100369.72;5060835;28;45128;-72
2022/03/13 09:13:39;;;;;;;;;2.75;2.50;;;;;12.27;47.31;100340.13;5060723;28;45756;-72
2022/03/13 09:16:05;;;;;;;;;4.00;2.25;;;;;13.31;46.83;100480.75;5058177;28;45140;-73
2022/03/13 09:18:31;;;;;;;;;2.00;2.00;;;;;13.45;46.27;100480.06;5052694;28;45380;-73
2022/03/13 09:20:59;;;;;;;;;3.67;3.00;;;;;13.68;45.97;100491.88;5054920;28;44996;-72
2022/03/13 09:23:25;;;;;;;;;2.00;2.00;;;;;13.22;45.15;100379.63;5055740;28;46038;-73
2022/03/13 09:25:52;;;;;;;;;2.67;2.67;;;;;13.69;44.68;100469.53;5066111;28;45261;-72
2022/03/13 09:28:18;;;;;;;;;3.00;2.50;;;;;13.87;44.61;100463.44;5061385;28;45274;-73
2022/03/13 09:30:44;;;;;;;;;3.00;3.00;;;;;13.69;44.58;100416.72;5061092;28;45198;-72
2022/03/13 09:33:12;;;;;;;;;1.00;1.00;;;;;14.15;43.64;100480.66;5068284;28;46029;-71
2022/03/13 09:35:38;;;;;;;;;2.67;1.00;;;;;14.03;44.08;100438.50;5074545;27;45210;-72
2022/03/13 09:38:03;;;;;;;;;2.33;2.33;;;;;13.19;43.50;100289.28;5062434;28;45205;-72
2022/03/13 09:40:29;;;;;;;;;2.67;2.67;;;;;13.46;44.27;100352.13;5056242;28;45207;-72
2022/03/13 09:42:55;;;;;;;;;2.00;2.00;;;;;13.80;43.72;100419.53;5060412;28;46003;-71
2022/03/13 09:45:20;;;;;;;;;2.00;2.00;;;;;14.36;44.48;100518.44;5060272;28;45114;-71
2022/03/13 09:47:46;;;;;;;;;3.00;3.00;;;;;14.33;44.15;100496.91;5058775;28;45231;-72
2022/03/13 09:50:12;;;;;;;;;3.00;3.00;;;;;14.36;44.17;100490.66;5052997;28;45033;-72
2022/03/13 09:52:40;;;;;;;;;4.00;2.00;;;;;14.41;44.10;100486.22;5066407;28;45596;-73
2022/03/13 09:55:10;;;;;;;;;2.33;1.33;;;;;14.30;44.03;100458.38;5077275;27;45195;-71
2022/03/13 09:57:37;;;;;;;;;1.00;1.00;;;;;14.40;43.92;100476.34;5069457;28;46373;-72
2022/03/13 10:00:09;;;;;;;;;1.00;1.00;;;;;14.27;43.65;100458.34;5055600;28;45134;-70
2022/03/13 10:02:37;;;;;;;;;4.00;2.33;;;;;13.06;43.68;100253.41;5060880;28;47160;-72
2022/03/13 10:05:16;;;;;;;;;0.33;0.00;;;;;13.81;44.20;100414.16;5062715;28;45186;-73
2022/03/13 10:08:02;;;;;;;;;2.33;2.33;;;;;14.34;44.09;100498.72;5061473;28;44979;-71
2022/03/13 10:10:41;;;;;;;;;4.33;2.00;;;;;14.32;44.06;100495.13;5059572;28;45554;-71
2022/03/13 10:13:06;;;;;;;;;3.00;2.00;;;;;14.05;44.67;100449.25;5050834;28;46099;-71
2022/03/13 10:15:41;;;;;;;;;2.00;2.00;;;;;14.27;44.19;100495.97;5066962;28;45203;-71
2022/03/13 10:18:11;;;;;;;;;12.50;6.75;;;;;13.53;44.10;100371.84;5068834;28;46534;-71
2022/03/13 10:20:39;;;;;;;;;2.33;2.33;;;;;13.11;43.69;100299.03;5063063;28;45234;-70
2022/03/13 10:23:10;;;;;;;;;3.00;3.00;;;;;13.19;44.30;100317.91;5076325;28;46215;-71
2022/03/13 10:25:38;;;;;;;;;3.67;3.67;;;;;13.94;44.78;100473.31;5063788;28;45372;-71
2022/03/13 10:28:23;;;;;;;;;4.00;2.67;;;;;14.23;44.52;100494.16;5047827;28;45197;-71
2022/03/13 10:31:00;;;;;;;;;4.25;3.00;;;;;14.23;44.59;100486.09;5064508;28;45170;-71
2022/03/13 10:33:27;;;;;;;;;3.67;3.67;;;;;13.92;44.74;100478.69;5055551;28;46492;-71
2022/03/13 10:36:14;;;;;;;;;1.00;1.00;;;;;14.14;44.97;100484.25;5043832;28;45556;-70
2022/03/13 10:38:41;;;;;;;;;3.67;3.00;;;;;14.14;45.63;100485.16;5060491;28;45477;-71
2022/03/13 10:41:09;;;;;;;;;1.00;1.00;;;;;13.76;45.28;100413.22;5048059;28;45340;-71
2022/03/13 10:43:57;;;;;;;;;3.00;1.67;;;;;14.19;45.45;100480.69;5041252;28;45599;-71
2022/03/13 10:46:33;;;;;;;;;2.00;2.00;;;;;13.77;45.49;100417.69;5035918;28;45721;-71
2022/03/13 10:49:01;;;;;;;;;3.00;3.00;;;;;14.13;45.27;100475.28;5050285;28;45294;-70
2022/03/13 10:51:45;;;;;;;;;2.25;2.25;;;;;14.14;45.71;100474.41;5062892;28;47300;-71
2022/03/13 10:54:27;;;;;;;;;6.50;4.75;;;;;13.23;44.96;100346.53;5061400;28;46643;-72
2022/03/13 10:57:08;;;;;;;;;3.00;2.00;;;;;14.12;45.22;100468.13;5064525;28;45419;-73
2022/03/13 10:59:34;;;;;;;;;4.00;4.00;;;;;14.10;45.43;100475.25;5054302;28;45264;-73
2022/03/13 11:02:14;;;;;;;;;7.25;6.75;;;;;14.09;45.44;100488.66;5041276;28;45760;-73
2022/03/13 11:04:50;;;;;;;;;3.00;3.00;;;;;13.68;45.57;100376.44;5047189;28;45409;-72
2022/03/13 11:07:16;;;;;;;;;7.75;4.25;;;;;14.23;45.29;100481.63;5052884;28;45215;-72
2022/03/13 11:09:43;;;;;;;;;3.33;3.33;;;;;14.00;45.13;100449.22;5055532;28;45558;-72
2022/03/13 11:12:15;;;;;;;;;5.50;5.50;;;;;12.72;44.89;100249.56;5066778;28;45505;-74
2022/03/13 11:14:42;;;;;;;;;4.33;2.00;;;;;12.96;45.14;100275.66;5042875;28;45706;-72
2022/03/13 11:17:11;;;;;;;;;5.50;5.50;;;;;12.55;45.30;100222.56;5036026;28;45368;-72
2022/03/13 11:19:38;;;;;;;;;3.00;3.00;;;;;12.87;44.23;100264.88;5051665;28;45539;-74
2022/03/13 11:22:04;;;;;;;;;6.25;6.00;;;;;13.86;44.93;100451.78;5064029;28;45238;-73
2022/03/13 11:24:29;;;;;;;;;8.00;5.75;;;;;12.95;44.85;100303.38;5058926;28;46530;-73